Time;durP1;ratioP1;P1;durP2;ratioP2;P2;SDS_P1;SDS_P2;PMS_P1;PMS_P2;Temp;Humidity;BMP_temperature;BMP_pressure;BME280_temperature;BME280_humidity;BME280_pressure;Samples;Min_cycle;Max_cycle;Signal;HPM_P1;HPM_P2
2022/06/05 00:00:29;;;;;;;;;;;;;;;27.16;48.82;98805.09;2083284;28;20003;-55
2022/06/05 00:01:34;;;;;;;;;;;;;;;27.15;49.22;98797.16;2079568;28;19980;-55
2022/06/05 00:02:41;;;;;;;;;;;;;;;27.18;49.41;98804.84;2082209;28;19935;-55
2022/06/05 00:03:47;;;;;;;;;;;;;;;27.19;49.54;98798.31;2082022;28;19929;-55
2022/06/05 00:04:51;;;;;;;;;;;;;;;27.18;49.72;98802.09;2082601;28;19929;-54
2022/06/05 00:05:59;;;;;;;;;;;;;;;27.19;49.00;98801.03;2081659;28;20938;-56
2022/06/05 00:07:03;;;;;;;;;;;;;;;27.20;48.80;98816.31;2081643;28;19981;-55
2022/06/05 00:08:12;;;;;;;;;;;;;;;27.20;48.12;98813.56;2081485;28;20421;-55
2022/06/05 00:09:18;;;;;;;;;;;;;;;27.23;48.65;98813.06;2080025;28;19960;-54
2022/06/05 00:10:22;;;;;;;;;;;;;;;27.21;46.31;98808.94;2082383;28;20032;-55
2022/06/05 00:11:23;;;;;;;;;;;;;;;27.20;46.94;98816.31;2082395;28;19933;-54
2022/06/05 00:12:31;;;;;;;;;;;;;;;27.19;46.96;98809.19;2083710;28;20011;-54
2022/06/05 00:13:36;;;;;;;;;;;;;;;27.17;47.24;98804.00;2081815;28;20572;-54
2022/06/05 00:14:39;;;;;;;;;;;;;;;27.16;47.34;98798.81;2083050;28;20426;-52
2022/06/05 00:15:39;;;;;;;;;;;;;;;27.15;46.92;98797.16;2082953;28;19928;-54
2022/06/05 00:16:41;;;;;;;;;;;;;;;27.16;47.47;98796.94;2081676;28;20570;-50
2022/06/05 00:17:42;;;;;;;;;;;;;;;27.16;48.28;98798.81;2083325;28;19935;-54
2022/06/05 00:18:44;;;;;;;;;;;;;;;27.14;48.15;98798.25;2080216;28;19929;-52
2022/06/05 00:19:47;;;;;;;;;;;;;;;27.11;48.24;98799.56;2082818;28;19932;-53
2022/06/05 00:20:49;;;;;;;;;;;;;;;27.14;48.31;98792.78;2082488;28;19929;-54
2022/06/05 00:21:49;;;;;;;;;;;;;;;27.15;47.63;98792.53;2083142;28;20444;-55
2022/06/05 00:22:51;;;;;;;;;;;;;;;27.14;47.54;98790.06;2081165;28;20071;-55
2022/06/05 00:23:52;;;;;;;;;;;;;;;27.15;47.23;98784.34;2082640;28;19935;-54
2022/06/05 00:24:54;;;;;;;;;;;;;;;27.15;47.51;98781.63;2082909;28;19986;-53
2022/06/05 00:25:59;;;;;;;;;;;;;;;27.17;47.81;98789.59;2082561;28;19935;-53
2022/06/05 00:27:06;;;;;;;;;;;;;;;27.15;47.31;98783.53;2078371;28;19928;-54
2022/06/05 00:28:13;;;;;;;;;;;;;;;27.15;47.42;98784.34;2083405;28;22135;-55
2022/06/05 00:29:23;;;;;;;;;;;;;;;27.15;47.30;98786.25;2082473;28;20525;-54
2022/06/05 00:30:29;;;;;;;;;;;;;;;27.14;47.10;98773.72;2083112;28;20970;-54
2022/06/05 00:31:35;;;;;;;;;;;;;;;27.15;47.22;98783.53;2080938;28;19925;-54
2022/06/05 00:32:38;;;;;;;;;;;;;;;27.13;47.53;98789.22;2082643;28;19929;-55
2022/06/05 00:33:42;;;;;;;;;;;;;;;27.14;47.54;98788.16;2081837;28;19935;-55
2022/06/05 00:34:42;;;;;;;;;;;;;;;27.14;47.14;98795.50;2082547;28;19928;-54
2022/06/05 00:35:50;;;;;;;;;;;;;;;27.14;47.50;98787.34;2080414;28;20023;-54
2022/06/05 00:36:57;;;;;;;;;;;;;;;27.15;47.40;98791.69;2082569;28;19929;-52
2022/06/05 00:38:02;;;;;;;;;;;;;;;27.14;47.46;98790.06;2081872;28;20416;-53
2022/06/05 00:39:05;;;;;;;;;;;;;;;27.15;47.77;98788.97;2080195;28;22277;-54
2022/06/05 00:40:26;;;;;;;;;;;;;;;27.14;47.47;98784.63;2083012;28;19986;-51
2022/06/05 00:41:38;;;;;;;;;;;;;;;27.16;48.02;98793.38;2081741;28;19936;-54
2022/06/05 00:42:39;;;;;;;;;;;;;;;27.15;48.39;98791.69;2081915;28;20014;-54
2022/06/05 00:43:41;;;;;;;;;;;;;;;27.16;48.51;98785.19;2080242;28;19929;-53
2022/06/05 00:44:45;;;;;;;;;;;;;;;27.13;48.64;98788.41;2078606;28;19935;-55
2022/06/05 00:45:46;;;;;;;;;;;;;;;27.13;49.00;98777.53;2081388;28;20374;-55
2022/06/05 00:46:49;;;;;;;;;;;;;;;27.13;49.26;98780.25;2081543;28;20198;-54
2022/06/05 00:47:52;;;;;;;;;;;;;;;27.12;49.15;98784.06;2080222;28;20847;-53
2022/06/05 00:48:52;;;;;;;;;;;;;;;27.13;49.28;98781.06;2081721;28;19935;-54
2022/06/05 00:49:57;;;;;;;;;;;;;;;27.14;49.34;98785.44;2083561;28;20939;-53
2022/06/05 00:50:58;;;;;;;;;;;;;;;27.16;49.73;98777.03;2080993;28;20326;-53
2022/06/05 00:51:59;;;;;;;;;;;;;;;27.12;49.75;98782.16;2081456;28;19929;-55
2022/06/05 00:53:01;;;;;;;;;;;;;;;27.14;49.57;98782.72;2081272;28;19928;-53
2022/06/05 00:54:03;;;;;;;;;;;;;;;27.16;49.99;98779.75;2083709;28;20567;-56
2022/06/05 00:55:04;;;;;;;;;;;;;;;27.15;49.62;98775.38;2082953;28;19928;-54
2022/06/05 00:56:10;;;;;;;;;;;;;;;27.14;49.83;98773.72;2082111;28;20940;-56
2022/06/05 00:57:12;;;;;;;;;;;;;;;27.15;49.93;98770.75;2082546;28;20506;-55
2022/06/05 00:58:14;;;;;;;;;;;;;;;27.17;49.85;98778.69;2082733;28;19936;-55
2022/06/05 00:59:18;;;;;;;;;;;;;;;27.18;49.82;98764.00;2081319;28;19929;-54
2022/06/05 01:00:21;;;;;;;;;;;;;;;27.17;50.15;98767.81;2078669;28;20044;-54
2022/06/05 01:01:22;;;;;;;;;;;;;;;27.17;50.25;98759.63;2084076;28;20374;-54
2022/06/05 01:02:23;;;;;;;;;;;;;;;27.17;48.28;98756.91;2082851;28;19936;-54
2022/06/05 01:03:24;;;;;;;;;;;;;;;27.17;48.95;98757.72;2083930;28;19929;-54
2022/06/05 01:04:27;;;;;;;;;;;;;;;27.18;48.08;98769.44;2082902;28;19978;-55
2022/06/05 01:05:28;;;;;;;;;;;;;;;27.16;48.53;98752.53;2081429;28;20900;-54
2022/06/05 01:06:29;;;;;;;;;;;;;;;27.15;48.46;98753.59;2081112;28;19967;-54
2022/06/05 01:07:30;;;;;;;;;;;;;;;27.14;47.01;98751.94;2083057;28;20539;-54
2022/06/05 01:08:32;;;;;;;;;;;;;;;27.12;46.70;98752.19;2081384;28;19932;-53
2022/06/05 01:09:32;;;;;;;;;;;;;;;27.12;47.28;98754.91;2082089;28;19982;-54
2022/06/05 01:10:38;;;;;;;;;;;;;;;27.13;48.21;98753.00;2078064;28;20065;-54
2022/06/05 01:11:46;;;;;;;;;;;;;;;27.12;47.39;98751.38;2082300;28;19940;-54
2022/06/05 01:12:54;;;;;;;;;;;;;;;27.11;47.69;98742.41;2082829;28;19972;-53
2022/06/05 01:14:02;;;;;;;;;;;;;;;27.11;47.41;98747.84;2081570;28;19935;-53
2022/06/05 01:15:12;;;;;;;;;;;;;;;27.13;46.47;98744.84;2081403;28;19963;-55
2022/06/05 01:16:23;;;;;;;;;;;;;;;27.12;45.79;98740.50;2081693;28;19936;-55
2022/06/05 01:17:29;;;;;;;;;;;;;;;27.12;47.10;98740.50;2081842;28;19928;-54
2022/06/05 01:18:34;;;;;;;;;;;;;;;27.10;46.16;98739.91;2079433;28;19928;-54
2022/06/05 01:19:40;;;;;;;;;;;;;;;27.08;46.62;98733.91;2081499;28;19960;-53
2022/06/05 01:20:47;;;;;;;;;;;;;;;27.07;45.79;98732.25;2082157;28;19993;-55
2022/06/05 01:22:09;;;;;;;;;;;;;;;27.09;45.93;98738.28;2080692;28;20046;-54
2022/06/05 01:23:21;;;;;;;;;;;;;;;27.08;45.17;98736.63;2057282;28;19940;-57
2022/06/05 01:24:33;;;;;;;;;;;;;;;27.07;45.57;98729.53;2083029;28;19935;-55
2022/06/05 01:25:39;;;;;;;;;;;;;;;27.08;45.37;98736.63;2081809;28;19929;-54
2022/06/05 01:26:45;;;;;;;;;;;;;;;27.09;44.85;98732.84;2083273;28;20305;-54
2022/06/05 01:27:51;;;;;;;;;;;;;;;27.08;44.02;98736.63;2081029;28;19929;-54
2022/06/05 01:28:57;;;;;;;;;;;;;;;27.05;44.00;98726.25;2083075;28;20281;-52
2022/06/05 01:30:00;;;;;;;;;;;;;;;27.06;43.88;98731.44;2083595;28;19929;-54
2022/06/05 01:31:06;;;;;;;;;;;;;;;27.07;45.47;98740.44;2084685;28;19990;-54
2022/06/05 01:32:09;;;;;;;;;;;;;;;27.05;46.48;98732.53;2082173;28;20618;-54
2022/06/05 01:33:14;;;;;;;;;;;;;;;27.05;46.01;98731.69;2079930;28;20022;-54
2022/06/05 01:34:20;;;;;;;;;;;;;;;27.04;46.83;98730.88;2082505;28;19928;-54
2022/06/05 01:35:25;;;;;;;;;;;;;;;27.03;46.56;98733.88;2080607;28;19929;-54
2022/06/05 01:36:31;;;;;;;;;;;;;;;27.05;46.49;98728.97;2081696;28;19932;-53
2022/06/05 01:37:38;;;;;;;;;;;;;;;27.06;46.96;98728.72;2082866;28;19946;-54
2022/06/05 01:38:44;;;;;;;;;;;;;;;27.07;47.51;98724.91;2083383;28;19932;-54
2022/06/05 01:39:47;;;;;;;;;;;;;;;27.08;48.24;98732.03;2082194;28;19941;-55
2022/06/05 01:40:52;;;;;;;;;;;;;;;27.10;47.91;98729.84;2083462;28;19935;-52
2022/06/05 01:41:56;;;;;;;;;;;;;;;27.10;49.10;98729.03;2081963;28;19964;-54
2022/06/05 01:43:00;;;;;;;;;;;;;;;27.09;48.24;98730.94;2083386;28;19936;-53
2022/06/05 01:44:05;;;;;;;;;;;;;;;27.13;48.92;98731.22;2080034;28;20698;-54
2022/06/05 01:45:09;;;;;;;;;;;;;;;27.13;49.02;98725.78;2081855;28;19928;-55
2022/06/05 01:46:13;;;;;;;;;;;;;;;27.16;49.54;98717.13;2083876;28;19940;-56
2022/06/05 01:47:17;;;;;;;;;;;;;;;27.16;49.30;98714.41;2084054;28;19928;-53
2022/06/05 01:48:21;;;;;;;;;;;;;;;27.17;49.16;98722.34;2080870;28;20772;-55
2022/06/05 01:49:23;;;;;;;;;;;;;;;27.15;49.72;98719.00;2082105;28;20457;-52
2022/06/05 01:50:28;;;;;;;;;;;;;;;27.15;49.52;98715.47;2082682;28;20765;-51
2022/06/05 01:51:30;;;;;;;;;;;;;;;27.14;49.80;98714.66;2085218;28;19929;-55
2022/06/05 01:52:34;;;;;;;;;;;;;;;27.15;49.49;98710.84;2080849;28;19935;-54
2022/06/05 01:53:37;;;;;;;;;;;;;;;27.13;49.64;98714.91;2084133;28;19933;-53
2022/06/05 01:54:41;;;;;;;;;;;;;;;27.12;49.81;98711.34;2083715;28;19928;-55
2022/06/05 01:55:44;;;;;;;;;;;;;;;27.12;49.89;98705.91;2084824;28;19928;-53
2022/06/05 01:56:50;;;;;;;;;;;;;;;27.11;49.98;98711.63;2083927;28;19978;-56
2022/06/05 01:57:52;;;;;;;;;;;;;;;27.14;49.81;98705.66;2082146;28;20881;-53
2022/06/05 01:58:57;;;;;;;;;;;;;;;27.11;49.72;98706.19;2082116;28;19928;-56
2022/06/05 02:00:01;;;;;;;;;;;;;;;27.13;49.89;98706.72;2081285;28;19946;-52
2022/06/05 02:01:05;;;;;;;;;;;;;;;27.12;50.03;98705.91;2082716;28;19929;-56
2022/06/05 02:02:09;;;;;;;;;;;;;;;27.13;49.92;98706.72;2081433;28;19985;-53
2022/06/05 02:03:11;;;;;;;;;;;;;;;27.13;50.15;98714.91;2084734;28;19939;-55
2022/06/05 02:04:16;;;;;;;;;;;;;;;27.17;50.00;98713.34;2084754;28;20043;-54
2022/06/05 02:05:20;;;;;;;;;;;;;;;27.18;50.07;98709.53;2084857;28;19929;-54
2022/06/05 02:06:25;;;;;;;;;;;;;;;27.16;50.10;98703.53;2085891;28;19965;-54
2022/06/05 02:07:28;;;;;;;;;;;;;;;27.16;50.08;98698.06;2081215;28;20647;-55
2022/06/05 02:08:33;;;;;;;;;;;;;;;27.15;50.13;98694.50;2081522;28;20015;-55
2022/06/05 02:09:36;;;;;;;;;;;;;;;27.15;50.13;98697.22;2083281;28;19936;-55
2022/06/05 02:10:43;;;;;;;;;;;;;;;27.16;50.13;98695.34;2083747;28;20568;-55
2022/06/05 02:11:44;;;;;;;;;;;;;;;27.15;50.59;98699.94;2084460;28;19928;-53
2022/06/05 02:12:47;;;;;;;;;;;;;;;27.15;50.33;98696.41;2083157;28;19970;-56
2022/06/05 02:13:48;;;;;;;;;;;;;;;27.13;50.38;98698.56;2081789;28;19940;-53
2022/06/05 02:14:50;;;;;;;;;;;;;;;27.15;50.33;98701.84;2083499;28;19933;-56
2022/06/05 02:15:50;;;;;;;;;;;;;;;27.14;50.48;98695.59;2080253;28;19974;-52
2022/06/05 02:16:52;;;;;;;;;;;;;;;27.17;50.75;98695.09;2081843;28;19982;-54
2022/06/05 02:17:53;;;;;;;;;;;;;;;27.15;50.32;98699.94;2082380;28;20603;-52
2022/06/05 02:18:55;;;;;;;;;;;;;;;27.15;50.83;98693.69;2082990;28;19929;-54
2022/06/05 02:19:55;;;;;;;;;;;;;;;27.15;50.38;98696.41;2083852;28;19928;-54
2022/06/05 02:20:57;;;;;;;;;;;;;;;27.14;50.41;98695.59;2085327;28;19939;-53
2022/06/05 02:22:01;;;;;;;;;;;;;;;27.14;50.53;98694.78;2085372;28;19936;-55
2022/06/05 02:23:03;;;;;;;;;;;;;;;27.14;50.79;98706.47;2085873;28;19932;-55
2022/06/05 02:24:05;;;;;;;;;;;;;;;27.14;50.79;98702.94;2082828;28;21539;-54
2022/06/05 02:25:07;;;;;;;;;;;;;;;27.16;50.38;98700.78;2082621;28;19976;-54
2022/06/05 02:26:08;;;;;;;;;;;;;;;27.18;50.53;98709.53;2083453;28;20417;-54
2022/06/05 02:27:10;;;;;;;;;;;;;;;27.18;50.36;98704.91;2084166;28;20479;-55
2022/06/05 02:28:13;;;;;;;;;;;;;;;27.17;49.99;98707.91;2083955;28;19928;-53
2022/06/05 02:29:15;;;;;;;;;;;;;;;27.17;50.02;98702.47;2084878;28;19939;-54
2022/06/05 02:30:16;;;;;;;;;;;;;;;27.18;49.88;98704.09;2085024;28;19983;-53
2022/06/05 02:31:24;;;;;;;;;;;;;;;27.17;49.50;98697.00;2084605;28;19928;-55
2022/06/05 02:32:31;;;;;;;;;;;;;;;27.17;49.03;98703.28;2085214;28;19936;-54
2022/06/05 02:33:37;;;;;;;;;;;;;;;27.17;49.10;98708.72;2083502;28;19932;-53
2022/06/05 02:34:41;;;;;;;;;;;;;;;27.14;49.49;98701.03;2081050;28;19932;-54
2022/06/05 02:35:48;;;;;;;;;;;;;;;27.14;49.54;98694.78;2083119;28;20023;-55
2022/06/05 02:36:52;;;;;;;;;;;;;;;27.15;49.84;98690.97;2083591;28;19929;-53
2022/06/05 02:37:59;;;;;;;;;;;;;;;27.14;50.35;98689.34;2082800;28;19939;-55
2022/06/05 02:39:03;;;;;;;;;;;;;;;27.15;50.13;98685.53;2083518;28;19978;-53
2022/06/05 02:40:09;;;;;;;;;;;;;;;27.16;50.33;98684.47;2083194;28;19943;-54
2022/06/05 02:41:15;;;;;;;;;;;;;;;27.13;50.21;98680.31;2084017;28;20014;-52
2022/06/05 02:42:21;;;;;;;;;;;;;;;27.13;50.80;98684.94;2082982;28;20404;-55
2022/06/05 02:43:29;;;;;;;;;;;;;;;27.15;50.66;98690.97;2080760;28;20567;-55
2022/06/05 02:44:34;;;;;;;;;;;;;;;27.14;50.55;98681.16;2082845;28;19940;-52
2022/06/05 02:45:45;;;;;;;;;;;;;;;27.14;50.98;98675.72;2084878;28;19975;-54
2022/06/05 02:46:50;;;;;;;;;;;;;;;27.14;50.79;98679.25;2083662;28;19928;-52
2022/06/05 02:47:54;;;;;;;;;;;;;;;27.15;50.77;98680.06;2082905;28;20477;-53
2022/06/05 02:48:59;;;;;;;;;;;;;;;27.14;51.11;98671.09;2083135;28;19928;-55
2022/06/05 02:50:03;;;;;;;;;;;;;;;27.13;51.09;98679.50;2083279;28;19928;-54
2022/06/05 02:51:08;;;;;;;;;;;;;;;27.14;50.57;98675.72;2083321;28;19929;-51
2022/06/05 02:52:10;;;;;;;;;;;;;;;27.15;50.45;98680.88;2081211;28;19935;-54
2022/06/05 02:53:13;;;;;;;;;;;;;;;27.17;50.87;98675.22;2084080;28;19928;-55
2022/06/05 02:54:18;;;;;;;;;;;;;;;27.15;50.41;98680.06;2083005;28;19929;-55
2022/06/05 02:55:22;;;;;;;;;;;;;;;27.17;50.69;98675.22;2083977;28;19933;-54
2022/06/05 02:56:23;;;;;;;;;;;;;;;27.16;50.54;98673.56;2081666;28;19928;-52
2022/06/05 02:57:25;;;;;;;;;;;;;;;27.16;50.82;98677.13;2083638;28;19929;-53
2022/06/05 02:58:27;;;;;;;;;;;;;;;27.15;50.74;98674.63;2084792;28;19929;-52
2022/06/05 02:59:29;;;;;;;;;;;;;;;27.17;50.68;98686.13;2081705;28;19972;-56
2022/06/05 03:00:31;;;;;;;;;;;;;;;27.14;51.19;98681.16;2084178;28;19959;-54
2022/06/05 03:04:10;;;;;;;;;;;;;;;27.15;50.83;98699.13;2070979;28;20366;-55
2022/06/05 03:05:11;;;;;;;;;;;;;;;27.16;51.13;98703.53;2083130;28;19928;-55
2022/06/05 03:06:13;;;;;;;;;;;;;;;27.16;51.49;98706.25;2083193;28;19938;-52
2022/06/05 03:07:13;;;;;;;;;;;;;;;27.17;51.11;98705.19;2084800;28;19989;-55
2022/06/05 03:08:16;;;;;;;;;;;;;;;27.17;51.05;98702.47;2084568;28;20526;-54
2022/06/05 03:09:18;;;;;;;;;;;;;;;27.16;51.30;98706.25;2082040;28;19998;-53
2022/06/05 03:10:20;;;;;;;;;;;;;;;27.15;51.29;98701.84;2084283;28;19932;-57
2022/06/05 03:11:21;;;;;;;;;;;;;;;27.13;50.62;98707.53;2085327;28;19929;-54
2022/06/05 03:12:22;;;;;;;;;;;;;;;27.12;50.72;98708.63;2083650;28;20022;-54
2022/06/05 03:13:23;;;;;;;;;;;;;;;27.12;50.53;98716.00;2083245;28;19928;-54
2022/06/05 03:14:26;;;;;;;;;;;;;;;27.11;51.16;98709.72;2082190;28;19928;-54
2022/06/05 03:15:26;;;;;;;;;;;;;;;27.11;50.80;98715.16;2084084;28;19936;-55
2022/06/05 03:16:29;;;;;;;;;;;;;;;27.10;50.92;98705.34;2083356;28;20047;-54
2022/06/05 03:17:30;;;;;;;;;;;;;;;27.11;50.78;98698.03;2081623;28;19978;-53
2022/06/05 03:18:31;;;;;;;;;;;;;;;27.11;50.33;98692.56;2083052;28;19939;-57
2022/06/05 03:19:32;;;;;;;;;;;;;;;27.13;50.54;98706.72;2083133;28;19940;-53
2022/06/05 03:20:34;;;;;;;;;;;;;;;27.14;49.31;98703.75;2084874;28;19928;-53
2022/06/05 03:21:35;;;;;;;;;;;;;;;27.16;48.77;98717.97;2074470;28;19928;-57
2022/06/05 03:22:37;;;;;;;;;;;;;;;27.16;48.37;98728.88;2075798;28;19928;-50
2022/06/05 03:23:38;;;;;;;;;;;;;;;27.17;47.63;98735.13;2078868;28;19943;-54
2022/06/05 03:24:39;;;;;;;;;;;;;;;27.16;46.78;98730.75;2081627;28;21030;-52
2022/06/05 03:25:41;;;;;;;;;;;;;;;27.14;46.49;98741.88;2082622;28;20015;-54
2022/06/05 03:26:42;;;;;;;;;;;;;;;27.12;45.81;98749.47;2082905;28;20660;-53
2022/06/05 03:27:43;;;;;;;;;;;;;;;27.13;45.25;98753.00;2081991;28;19936;-56
2022/06/05 03:28:45;;;;;;;;;;;;;;;27.08;45.57;98770.13;2081046;28;20659;-54
2022/06/05 03:29:47;;;;;;;;;;;;;;;27.08;45.43;98781.03;2084099;28;19933;-54
2022/06/05 03:30:48;;;;;;;;;;;;;;;27.10;45.82;98786.19;2078500;28;19935;-54
2022/06/05 03:31:49;;;;;;;;;;;;;;;27.11;45.56;98796.84;2084653;28;20084;-51
2022/06/05 03:32:51;;;;;;;;;;;;;;;27.11;45.11;98796.84;2084441;28;19952;-54
2022/06/05 03:33:51;;;;;;;;;;;;;;;27.11;44.59;98802.28;2082760;28;20553;-54
2022/06/05 03:34:53;;;;;;;;;;;;;;;27.11;44.57;98806.91;2084463;28;19964;-54
2022/06/05 03:35:54;;;;;;;;;;;;;;;27.10;44.63;98813.41;2083049;28;19928;-54
2022/06/05 03:36:55;;;;;;;;;;;;;;;27.11;45.02;98818.63;2081052;28;19964;-54
2022/06/05 03:37:56;;;;;;;;;;;;;;;27.08;44.95;98810.97;2081546;28;19929;-54
2022/06/05 03:38:58;;;;;;;;;;;;;;;27.10;44.59;98827.84;2078266;28;19929;-55
2022/06/05 03:39:58;;;;;;;;;;;;;;;27.09;44.51;98819.97;2080746;28;19929;-57
2022/06/05 03:41:00;;;;;;;;;;;;;;;27.09;44.39;98822.69;2082503;28;19960;-54
2022/06/05 03:42:00;;;;;;;;;;;;;;;27.09;44.44;98820.78;2081580;28;19936;-57
2022/06/05 03:43:03;;;;;;;;;;;;;;;27.08;44.40;98807.41;2082195;28;19928;-51
2022/06/05 03:44:03;;;;;;;;;;;;;;;27.09;44.80;98792.72;2082735;28;19929;-55
2022/06/05 03:45:11;;;;;;;;;;;;;;;27.06;44.83;98788.63;2081364;28;19935;-52
2022/06/05 03:46:12;;;;;;;;;;;;;;;27.05;45.88;98786.13;2083578;28;19929;-54
2022/06/05 03:47:14;;;;;;;;;;;;;;;27.06;46.36;98793.25;2080280;28;20866;-52
2022/06/05 03:48:16;;;;;;;;;;;;;;;27.04;46.23;98792.66;2081803;28;19934;-54
2022/06/05 03:49:17;;;;;;;;;;;;;;;27.02;46.79;98786.66;2081464;28;19928;-51
2022/06/05 03:50:18;;;;;;;;;;;;;;;27.05;47.34;98795.16;2082160;28;19974;-52
2022/06/05 03:51:21;;;;;;;;;;;;;;;27.07;47.62;98797.59;2081498;28;20588;-53
2022/06/05 03:52:21;;;;;;;;;;;;;;;27.09;46.94;98814.50;2080438;28;20366;-54
2022/06/05 03:53:23;;;;;;;;;;;;;;;27.10;46.17;98816.97;2078098;28;20039;-53
2022/06/05 03:54:24;;;;;;;;;;;;;;;27.09;46.39;98823.50;2080310;28;19954;-53
2022/06/05 03:55:26;;;;;;;;;;;;;;;27.09;46.76;98826.22;2081506;28;19932;-55
2022/06/05 03:56:28;;;;;;;;;;;;;;;27.10;47.48;98832.47;2081125;28;19929;-52
2022/06/05 03:57:29;;;;;;;;;;;;;;;27.07;47.64;98828.38;2076740;28;19986;-54
2022/06/05 03:58:30;;;;;;;;;;;;;;;27.09;48.14;98833.56;2081444;28;20287;-54
2022/06/05 03:59:33;;;;;;;;;;;;;;;27.05;48.77;98844.16;2079482;28;19935;-54
2022/06/05 04:00:35;;;;;;;;;;;;;;;27.05;48.71;98860.50;2080500;28;19936;-57
2022/06/05 04:01:37;;;;;;;;;;;;;;;27.08;48.49;98880.91;2082111;28;19928;-55
2022/06/05 04:02:37;;;;;;;;;;;;;;;27.09;47.86;98890.75;2080501;28;19986;-54
2022/06/05 04:03:39;;;;;;;;;;;;;;;27.08;47.67;98895.38;2081227;28;20025;-55
2022/06/05 04:04:40;;;;;;;;;;;;;;;27.08;47.97;98900.81;2081433;28;19938;-55
2022/06/05 04:05:44;;;;;;;;;;;;;;;27.08;48.48;98908.97;2079137;28;20364;-51
2022/06/05 04:06:44;;;;;;;;;;;;;;;27.08;48.24;98908.97;2081068;28;19928;-55
2022/06/05 04:07:46;;;;;;;;;;;;;;;27.08;47.69;98917.16;2081402;28;20019;-55
2022/06/05 04:08:47;;;;;;;;;;;;;;;27.06;47.22;98905.69;2081711;28;19935;-58
2022/06/05 04:09:48;;;;;;;;;;;;;;;27.07;47.50;98911.94;2081423;28;20103;-56
2022/06/05 04:10:49;;;;;;;;;;;;;;;27.07;47.41;98903.78;2084209;28;20405;-55
2022/06/05 04:11:50;;;;;;;;;;;;;;;27.02;47.35;98896.34;2082550;28;19928;-53
2022/06/05 04:12:52;;;;;;;;;;;;;;;27.02;47.23;98893.63;2082742;28;20031;-54
2022/06/05 04:13:54;;;;;;;;;;;;;;;27.02;46.76;98904.53;2079219;28;19929;-55
2022/06/05 04:14:54;;;;;;;;;;;;;;;27.00;46.78;98903.97;2083357;28;19935;-55
2022/06/05 04:15:57;;;;;;;;;;;;;;;27.00;45.55;98916.78;2080491;28;20402;-55
2022/06/05 04:16:59;;;;;;;;;;;;;;;27.00;46.56;98911.31;2081766;28;19933;-53
2022/06/05 04:17:59;;;;;;;;;;;;;;;26.99;46.13;98899.59;2081584;28;19928;-56
2022/06/05 04:19:01;;;;;;;;;;;;;;;26.96;46.39;98897.38;2083060;28;19928;-54
2022/06/05 04:20:03;;;;;;;;;;;;;;;26.95;46.76;98895.75;2080449;28;20387;-54
2022/06/05 04:21:06;;;;;;;;;;;;;;;26.95;48.02;98893.84;2083023;28;19975;-54
2022/06/05 04:22:07;;;;;;;;;;;;;;;26.93;48.18;98879.66;2080391;28;19929;-57
2022/06/05 04:23:10;;;;;;;;;;;;;;;26.94;46.67;98873.16;2078673;28;19939;-54
2022/06/05 04:24:11;;;;;;;;;;;;;;;26.95;45.07;98868.53;2082241;28;19936;-54
2022/06/05 04:25:15;;;;;;;;;;;;;;;26.94;45.36;98862.25;2082235;28;19964;-55
2022/06/05 04:26:16;;;;;;;;;;;;;;;26.92;45.40;98858.97;2081589;28;20023;-56
2022/06/05 04:27:18;;;;;;;;;;;;;;;26.91;45.51;98846.44;2082333;28;19929;-54
2022/06/05 04:28:19;;;;;;;;;;;;;;;26.92;45.51;98830.94;2081218;28;19929;-55
2022/06/05 04:29:21;;;;;;;;;;;;;;;26.89;44.70;98807.75;2081500;28;19936;-54
2022/06/05 04:30:21;;;;;;;;;;;;;;;26.88;45.28;98788.94;2081508;28;21240;-55
2022/06/05 04:31:26;;;;;;;;;;;;;;;26.88;44.22;98770.72;2078434;28;20992;-56
2022/06/05 04:32:26;;;;;;;;;;;;;;;26.86;44.21;98769.34;2082328;28;19959;-56
2022/06/05 04:33:28;;;;;;;;;;;;;;;26.86;44.81;98762.00;2082210;28;20441;-55
2022/06/05 04:34:29;;;;;;;;;;;;;;;26.88;44.46;98748.94;2081313;28;19939;-53
2022/06/05 04:35:30;;;;;;;;;;;;;;;26.88;44.45;98743.50;2080079;28;20655;-52
2022/06/05 04:36:32;;;;;;;;;;;;;;;26.87;44.16;98736.41;2081358;28;19936;-54
2022/06/05 04:37:33;;;;;;;;;;;;;;;26.83;43.74;98718.97;2080752;28;19960;-53
2022/06/05 04:38:34;;;;;;;;;;;;;;;26.81;43.09;98712.13;2080748;28;19928;-54
2022/06/05 04:39:35;;;;;;;;;;;;;;;26.80;42.44;98713.19;2081240;28;19955;-50
2022/06/05 04:40:37;;;;;;;;;;;;;;;26.81;42.04;98729.28;2078326;28;20117;-55
2022/06/05 04:41:38;;;;;;;;;;;;;;;26.77;41.42;98738.19;2080820;28;20475;-52
2022/06/05 04:42:39;;;;;;;;;;;;;;;26.71;40.86;98740.03;2079481;28;19935;-54
2022/06/05 04:43:40;;;;;;;;;;;;;;;26.74;40.14;98747.69;2080597;28;20572;-55
2022/06/05 04:44:42;;;;;;;;;;;;;;;26.71;40.19;98750.94;2083586;28;20008;-52
2022/06/05 04:45:43;;;;;;;;;;;;;;;26.73;39.83;98748.78;2083312;28;19929;-53
2022/06/05 04:46:46;;;;;;;;;;;;;;;26.72;40.04;98750.69;2080348;28;19935;-54
2022/06/05 04:47:47;;;;;;;;;;;;;;;26.74;39.84;98756.69;2081755;28;19937;-60
2022/06/05 04:48:49;;;;;;;;;;;;;;;26.76;39.73;98777.38;2078217;28;19935;-57
2022/06/05 04:49:49;;;;;;;;;;;;;;;26.73;39.13;98800.47;2080963;28;20410;-57
2022/06/05 04:50:51;;;;;;;;;;;;;;;26.73;38.86;98816.81;2083190;28;20012;-53
2022/06/05 04:51:52;;;;;;;;;;;;;;;26.74;39.69;98832.03;2081337;28;19928;-57
2022/06/05 04:52:53;;;;;;;;;;;;;;;26.75;39.51;98852.75;2082015;28;19929;-54
2022/06/05 04:53:55;;;;;;;;;;;;;;;26.73;40.60;98860.34;2080721;28;19935;-53
2022/06/05 04:54:57;;;;;;;;;;;;;;;26.74;40.94;98861.97;2082948;28;19928;-54
2022/06/05 04:55:57;;;;;;;;;;;;;;;26.74;41.13;98857.38;2081810;28;20044;-56
2022/06/05 04:56:59;;;;;;;;;;;;;;;26.74;42.08;98861.97;2081644;28;20459;-54
2022/06/05 04:58:00;;;;;;;;;;;;;;;26.74;42.60;98876.44;2078580;28;20008;-57
2022/06/05 04:59:02;;;;;;;;;;;;;;;26.76;42.93;98880.78;2082561;28;19928;-56
2022/06/05 05:00:03;;;;;;;;;;;;;;;26.76;43.79;98887.03;2080910;28;19929;-57
2022/06/05 05:01:10;;;;;;;;;;;;;;;26.74;43.88;98890.03;2082367;28;20046;-55
2022/06/05 05:02:13;;;;;;;;;;;;;;;26.78;43.86;98901.22;2081866;28;19929;-53
2022/06/05 05:03:14;;;;;;;;;;;;;;;26.82;43.11;98913.25;2080219;28;19956;-55
2022/06/05 05:04:16;;;;;;;;;;;;;;;26.87;43.40;98915.22;2081144;28;20586;-55
2022/06/05 05:05:16;;;;;;;;;;;;;;;26.85;42.83;98918.19;2080832;28;20019;-53
2022/06/05 05:06:18;;;;;;;;;;;;;;;26.88;42.90;98923.13;2081717;28;19936;-50
2022/06/05 05:07:19;;;;;;;;;;;;;;;26.88;43.00;98922.31;2083299;28;20420;-53
2022/06/05 05:08:20;;;;;;;;;;;;;;;26.85;42.91;98923.63;2077686;28;19935;-54
2022/06/05 05:09:22;;;;;;;;;;;;;;;26.85;43.04;98918.19;2083028;28;20089;-50
2022/06/05 05:10:23;;;;;;;;;;;;;;;26.85;42.55;98918.19;2081051;28;19973;-54
2022/06/05 05:11:24;;;;;;;;;;;;;;;26.86;43.25;98925.28;2082159;28;19928;-51
2022/06/05 05:12:26;;;;;;;;;;;;;;;26.88;43.61;98939.44;2082264;28;20785;-53
2022/06/05 05:13:28;;;;;;;;;;;;;;;26.88;43.59;98935.91;2084593;28;19935;-54
2022/06/05 05:14:28;;;;;;;;;;;;;;;26.86;43.39;98938.91;2084541;28;19936;-55
2022/06/05 05:15:30;;;;;;;;;;;;;;;26.88;43.84;98931.28;2085140;28;19928;-53
2022/06/05 05:16:31;;;;;;;;;;;;;;;26.90;43.71;98939.22;2083760;28;19928;-55
2022/06/05 05:17:34;;;;;;;;;;;;;;;26.89;43.47;98949.28;2080509;28;19929;-55
2022/06/05 05:18:35;;;;;;;;;;;;;;;26.85;43.79;98945.41;2082269;28;19929;-53
2022/06/05 05:19:37;;;;;;;;;;;;;;;26.85;43.99;98945.41;2083871;28;19935;-55
2022/06/05 05:20:37;;;;;;;;;;;;;;;26.84;44.62;98943.75;2083354;28;19960;-53
2022/06/05 05:21:39;;;;;;;;;;;;;;;26.85;44.88;98945.41;2085012;28;19935;-55
2022/06/05 05:22:39;;;;;;;;;;;;;;;26.84;45.13;98929.34;2082538;28;20018;-55
2022/06/05 05:23:42;;;;;;;;;;;;;;;26.86;44.30;98919.84;2083300;28;19933;-50
2022/06/05 05:24:43;;;;;;;;;;;;;;;26.84;44.01;98908.38;2083937;28;20841;-53
2022/06/05 05:25:46;;;;;;;;;;;;;;;26.82;44.32;98909.72;2083449;28;19933;-54
2022/06/05 05:26:46;;;;;;;;;;;;;;;26.78;44.86;98909.38;2083738;28;19935;-54
2022/06/05 05:27:48;;;;;;;;;;;;;;;26.78;44.89;98906.66;2079661;28;20059;-57
2022/06/05 05:28:48;;;;;;;;;;;;;;;26.79;44.06;98899.31;2083546;28;19932;-55
2022/06/05 05:29:51;;;;;;;;;;;;;;;26.77;44.24;98896.84;2083283;28;19929;-53
2022/06/05 05:30:52;;;;;;;;;;;;;;;26.76;45.04;98892.47;2083271;28;19929;-53